createdAt,value
2019-01-30T00:00:10.047Z,2.60
2019-01-30T00:02:36.197Z,2.60
2019-01-30T00:05:05.127Z,2.60
2019-01-30T00:07:32.266Z,2.60
2019-01-30T00:09:58.659Z,2.60
2019-01-30T00:12:25.024Z,2.60
2019-01-30T00:14:51.166Z,2.50
2019-01-30T00:17:17.303Z,2.50
2019-01-30T00:19:43.482Z,2.50
2019-01-30T00:22:09.634Z,2.50
2019-01-30T00:24:35.793Z,2.50
2019-01-30T00:27:01.948Z,2.50
2019-01-30T00:29:28.318Z,2.50
2019-01-30T00:31:54.475Z,2.50
2019-01-30T00:34:20.612Z,2.50
2019-01-30T00:36:46.762Z,2.50
2019-01-30T00:39:12.899Z,2.50
2019-01-30T00:41:39.042Z,2.50
2019-01-30T00:44:05.191Z,2.50
2019-01-30T00:46:31.570Z,2.50
2019-01-30T00:48:57.695Z,2.40
2019-01-30T00:51:23.897Z,2.50
2019-01-30T00:53:50.035Z,2.40
2019-01-30T00:56:16.412Z,2.40
2019-01-30T00:58:42.791Z,2.40
2019-01-30T01:01:08.948Z,2.40
2019-01-30T01:03:35.090Z,2.40
2019-01-30T01:06:01.338Z,2.40
2019-01-30T01:08:27.491Z,2.40
2019-01-30T01:10:53.636Z,2.30
2019-01-30T01:13:20.015Z,2.30
2019-01-30T01:15:46.158Z,2.30
2019-01-30T01:18:12.308Z,2.30
2019-01-30T01:20:38.696Z,2.30
2019-01-30T01:23:04.846Z,2.30
2019-01-30T01:25:30.979Z,2.30
2019-01-30T01:27:57.235Z,2.20
2019-01-30T01:30:25.698Z,2.20
2019-01-30T01:32:52.118Z,2.20
2019-01-30T01:35:18.262Z,2.10
2019-01-30T01:37:44.402Z,2.20
2019-01-30T01:40:12.544Z,2.10
2019-01-30T01:42:38.706Z,2.20
2019-01-30T01:45:08.438Z,2.20
2019-01-30T01:47:34.599Z,2.10
2019-01-30T01:50:00.727Z,2.10
2019-01-30T01:52:26.885Z,2.10
2019-01-30T01:54:53.017Z,2.00
2019-01-30T01:57:19.163Z,2.10
2019-01-30T01:59:45.302Z,2.10
2019-01-30T02:02:11.670Z,2.00
2019-01-30T02:04:37.825Z,2.10
2019-01-30T02:07:03.961Z,2.10
2019-01-30T02:09:30.117Z,2.00
2019-01-30T02:11:56.503Z,2.00
2019-01-30T02:14:22.651Z,2.00
2019-01-30T02:16:48.794Z,2.00
2019-01-30T02:19:14.947Z,2.00
2019-01-30T02:21:41.073Z,2.00
2019-01-30T02:24:07.236Z,2.00
2019-01-30T02:26:33.353Z,2.00
2019-01-30T02:28:59.734Z,2.00
2019-01-30T02:31:26.098Z,2.00
2019-01-30T02:33:52.503Z,1.90
2019-01-30T02:36:18.646Z,1.90
2019-01-30T02:38:44.782Z,1.90
2019-01-30T02:41:10.927Z,1.80
2019-01-30T02:43:37.351Z,1.80
2019-01-30T02:46:03.494Z,1.80
2019-01-30T02:48:29.891Z,1.70
2019-01-30T02:50:56.288Z,1.60
2019-01-30T02:53:22.529Z,1.50
2019-01-30T02:55:48.687Z,1.50
2019-01-30T02:58:15.826Z,1.50
2019-01-30T03:00:42.206Z,1.40
2019-01-30T03:03:08.369Z,1.40
2019-01-30T03:05:34.539Z,1.30
2019-01-30T03:08:00.673Z,1.40
2019-01-30T03:10:26.864Z,1.30
2019-01-30T03:12:53.019Z,1.30
2019-01-30T03:15:19.374Z,1.20
2019-01-30T03:17:45.562Z,1.20
2019-01-30T03:20:16.341Z,1.20
2019-01-30T03:22:42.743Z,1.20
2019-01-30T03:25:11.407Z,1.10
2019-01-30T03:27:37.546Z,1.20
2019-01-30T03:30:07.508Z,1.10
2019-01-30T03:32:33.643Z,1.10
2019-01-30T03:34:59.786Z,1.00
2019-01-30T03:37:25.946Z,1.00
2019-01-30T03:39:52.363Z,1.00
2019-01-30T03:42:18.505Z,1.00
2019-01-30T03:44:45.646Z,0.90
2019-01-30T03:47:11.875Z,0.90
2019-01-30T03:49:38.013Z,0.90
2019-01-30T03:52:04.164Z,0.90
2019-01-30T03:54:30.465Z,0.90
2019-01-30T03:56:56.610Z,0.90
2019-01-30T03:59:22.756Z,0.80
2019-01-30T04:01:48.898Z,0.80
2019-01-30T04:04:15.026Z,0.80
2019-01-30T04:06:42.178Z,0.80
2019-01-30T04:09:08.319Z,0.80
2019-01-30T04:11:34.469Z,0.80
2019-01-30T04:14:00.855Z,0.80
2019-01-30T04:16:27.057Z,0.80
2019-01-30T04:18:53.207Z,0.80
2019-01-30T04:21:19.358Z,0.90
2019-01-30T04:23:45.505Z,1.00
2019-01-30T04:26:11.658Z,1.10
2019-01-30T04:28:37.787Z,1.10
2019-01-30T04:31:03.941Z,1.20
2019-01-30T04:33:30.348Z,1.20
2019-01-30T04:35:56.494Z,1.20
2019-01-30T04:38:22.853Z,1.30
2019-01-30T04:40:49.014Z,1.30
2019-01-30T04:43:15.195Z,1.30
2019-01-30T04:45:41.339Z,1.40
2019-01-30T04:48:07.475Z,1.40
2019-01-30T04:50:33.626Z,1.40
2019-01-30T04:52:59.763Z,1.50
2019-01-30T04:55:25.943Z,1.50
2019-01-30T04:57:52.095Z,1.50
2019-01-30T05:00:20.807Z,1.50
2019-01-30T05:02:47.243Z,1.50
2019-01-30T05:05:13.603Z,1.50
2019-01-30T05:07:39.776Z,1.50
2019-01-30T05:10:08.245Z,1.50
2019-01-30T05:12:34.402Z,1.50
2019-01-30T05:15:00.702Z,1.50
2019-01-30T05:17:26.904Z,1.50
2019-01-30T05:19:53.275Z,1.50
2019-01-30T05:22:19.426Z,1.50
2019-01-30T05:24:45.563Z,1.50
2019-01-30T05:27:11.981Z,1.40
2019-01-30T05:29:39.119Z,1.40
2019-01-30T05:32:05.287Z,1.50
2019-01-30T05:34:31.686Z,1.50
2019-01-30T05:36:57.842Z,1.50
2019-01-30T05:39:23.983Z,1.50
2019-01-30T05:41:50.439Z,1.50
2019-01-30T05:44:16.576Z,1.50
2019-01-30T05:46:42.738Z,1.50
2019-01-30T05:49:08.890Z,1.50
2019-01-30T05:51:35.067Z,1.50
2019-01-30T05:54:01.211Z,1.50
2019-01-30T05:56:27.405Z,1.50
2019-01-30T05:58:53.552Z,1.50
2019-01-30T06:01:19.689Z,1.60
2019-01-30T06:03:45.832Z,1.60
2019-01-30T06:06:12.004Z,1.50
2019-01-30T06:08:38.139Z,1.60
2019-01-30T06:11:04.274Z,1.60
2019-01-30T06:13:30.694Z,1.60
2019-01-30T06:15:56.864Z,1.60
2019-01-30T06:18:23.031Z,1.60
2019-01-30T06:20:49.190Z,1.60
2019-01-30T06:23:15.464Z,1.60
2019-01-30T06:25:41.623Z,1.60
2019-01-30T06:28:07.795Z,1.60
2019-01-30T06:30:34.187Z,1.60
2019-01-30T06:33:00.330Z,1.60
2019-01-30T06:35:26.517Z,1.50
2019-01-30T06:37:52.654Z,1.60
2019-01-30T06:40:27.015Z,1.60
2019-01-30T06:42:53.160Z,1.50
2019-01-30T06:45:19.559Z,1.50
2019-01-30T06:47:45.726Z,1.60
2019-01-30T06:50:12.683Z,1.60
2019-01-30T06:52:38.847Z,1.50
2019-01-30T06:55:05.286Z,1.50
2019-01-30T06:57:31.495Z,1.50
2019-01-30T06:59:57.654Z,1.50
2019-01-30T07:02:32.053Z,1.50
2019-01-30T07:04:51.839Z,1.50
2019-01-30T07:07:17.976Z,1.50
2019-01-30T07:09:44.398Z,1.50
2019-01-30T07:12:10.552Z,1.50
2019-01-30T07:14:36.955Z,1.50
2019-01-30T07:17:03.184Z,1.50
2019-01-30T07:19:29.330Z,1.50
2019-01-30T07:21:55.503Z,1.50
2019-01-30T07:24:21.689Z,1.50
2019-01-30T07:26:47.835Z,1.50
2019-01-30T07:29:14.022Z,1.50
2019-01-30T07:31:40.173Z,1.50
2019-01-30T07:34:06.309Z,1.50
2019-01-30T07:36:32.694Z,1.50
2019-01-30T07:38:58.841Z,1.50
2019-01-30T07:41:24.987Z,1.50
2019-01-30T07:43:51.143Z,1.50
2019-01-30T07:46:17.323Z,1.50
2019-01-30T07:48:43.688Z,1.50
2019-01-30T07:51:09.838Z,1.50
2019-01-30T07:53:35.962Z,1.50
2019-01-30T07:56:02.115Z,1.40
2019-01-30T07:58:28.275Z,1.40
2019-01-30T08:00:54.452Z,1.50
2019-01-30T08:03:20.591Z,1.50
2019-01-30T08:05:47.400Z,1.50
2019-01-30T08:08:13.849Z,1.50
2019-01-30T08:10:40.007Z,1.60
2019-01-30T08:13:06.148Z,1.60
2019-01-30T08:15:32.569Z,1.50
2019-01-30T08:17:58.958Z,1.50
2019-01-30T08:20:25.112Z,1.60
2019-01-30T08:22:51.282Z,1.50
2019-01-30T08:25:19.217Z,1.60
2019-01-30T08:27:45.409Z,1.60
2019-01-30T08:30:22.613Z,1.60
2019-01-30T08:32:46.018Z,1.60
2019-01-30T08:35:12.731Z,1.60
2019-01-30T08:37:38.920Z,1.60
2019-01-30T08:40:07.584Z,1.60
2019-01-30T08:42:33.736Z,1.60
2019-01-30T08:44:59.872Z,1.60
2019-01-30T08:47:27.025Z,1.70
2019-01-30T08:49:53.512Z,1.70
2019-01-30T08:52:19.668Z,1.70
2019-01-30T08:54:45.803Z,1.80
2019-01-30T08:57:12.019Z,1.80
2019-01-30T08:59:38.161Z,1.80
2019-01-30T09:02:04.365Z,1.90
2019-01-30T09:04:30.503Z,1.90
2019-01-30T09:06:56.664Z,1.90
2019-01-30T09:09:23.077Z,1.90
2019-01-30T09:11:49.867Z,1.90
2019-01-30T09:14:16.259Z,1.90
2019-01-30T09:16:42.717Z,1.90
2019-01-30T09:19:08.900Z,1.90
2019-01-30T09:21:35.075Z,1.90
2019-01-30T09:24:01.280Z,1.70
2019-01-30T09:26:27.438Z,1.60
2019-01-30T09:28:53.864Z,1.50
2019-01-30T09:31:20.053Z,1.50
2019-01-30T09:33:46.241Z,1.50
2019-01-30T09:36:12.384Z,1.40
2019-01-30T09:38:38.577Z,1.50
2019-01-30T09:41:05.027Z,1.40
2019-01-30T09:43:31.439Z,1.40
2019-01-30T09:45:57.874Z,1.30
2019-01-30T09:48:24.090Z,1.40
2019-01-30T09:50:50.284Z,1.40
2019-01-30T09:53:16.499Z,1.40
2019-01-30T09:55:42.678Z,1.40
2019-01-30T09:58:08.855Z,1.40
2019-01-30T10:00:36.614Z,1.40
2019-01-30T10:03:02.874Z,1.40
2019-01-30T10:05:29.018Z,1.40
2019-01-30T10:07:55.503Z,1.40
2019-01-30T10:10:34.576Z,1.40
2019-01-30T10:13:00.914Z,1.50
2019-01-30T10:15:36.082Z,1.50
2019-01-30T10:18:02.259Z,1.60
2019-01-30T10:20:30.051Z,1.60
2019-01-30T10:22:56.206Z,1.60
2019-01-30T10:25:22.370Z,1.60
2019-01-30T10:27:49.526Z,1.80
2019-01-30T10:30:22.281Z,1.80
2019-01-30T10:32:48.443Z,1.80
2019-01-30T10:35:14.601Z,1.90
2019-01-30T10:37:40.767Z,1.80
2019-01-30T10:40:16.728Z,1.90
2019-01-30T10:42:42.878Z,2.00
2019-01-30T10:45:09.833Z,2.00
2019-01-30T10:47:35.980Z,2.10
2019-01-30T10:50:06.778Z,2.10
2019-01-30T10:52:33.219Z,2.10
2019-01-30T10:54:59.412Z,2.00
2019-01-30T10:57:25.896Z,2.00
2019-01-30T10:59:52.286Z,2.00
2019-01-30T11:02:18.446Z,2.10
2019-01-30T11:04:44.590Z,2.10
2019-01-30T11:07:10.776Z,2.10
2019-01-30T11:09:37.186Z,2.00
2019-01-30T11:12:04.358Z,2.10
2019-01-30T11:14:30.753Z,2.10
2019-01-30T11:16:57.126Z,2.20
2019-01-30T11:19:23.550Z,2.20
2019-01-30T11:21:49.708Z,2.30
2019-01-30T11:24:15.865Z,2.20
2019-01-30T11:26:42.363Z,2.30
2019-01-30T11:29:08.508Z,2.30
2019-01-30T11:31:34.662Z,2.20
2019-01-30T11:34:07.258Z,2.20
2019-01-30T11:36:28.876Z,2.20
2019-01-30T11:38:55.294Z,2.30
2019-01-30T11:41:21.455Z,2.20
2019-01-30T11:43:47.940Z,2.30
2019-01-30T11:46:14.093Z,2.30
2019-01-30T11:48:40.262Z,2.30
2019-01-30T11:51:06.876Z,2.30
2019-01-30T11:53:33.124Z,2.30
2019-01-30T11:55:59.278Z,2.20
2019-01-30T11:58:25.667Z,2.20
2019-01-30T12:00:56.511Z,2.10
2019-01-30T12:03:22.724Z,2.20
2019-01-30T12:05:48.888Z,2.20
2019-01-30T12:08:15.041Z,2.20
2019-01-30T12:10:41.192Z,2.30
2019-01-30T12:13:07.336Z,2.30
2019-01-30T12:15:33.574Z,2.30
2019-01-30T12:17:59.720Z,2.40
2019-01-30T12:20:25.903Z,2.30
2019-01-30T12:22:52.052Z,2.40
2019-01-30T12:25:19.768Z,2.30
2019-01-30T12:27:45.957Z,2.30
2019-01-30T12:30:25.305Z,2.40
2019-01-30T12:32:51.491Z,2.50
2019-01-30T12:35:17.627Z,2.40
2019-01-30T12:37:43.791Z,2.50
2019-01-30T12:40:15.067Z,2.50
2019-01-30T12:42:41.222Z,2.40
2019-01-30T12:45:11.294Z,2.40
2019-01-30T12:47:37.559Z,2.40
2019-01-30T12:50:07.514Z,2.40
2019-01-30T12:52:33.858Z,2.40
2019-01-30T12:55:00.011Z,2.30
2019-01-30T12:57:26.182Z,2.30
2019-01-30T12:59:52.347Z,2.30
2019-01-30T13:02:18.515Z,2.20
2019-01-30T13:04:44.698Z,2.20
2019-01-30T13:07:10.874Z,2.20
2019-01-30T13:09:37.118Z,2.30
2019-01-30T13:12:03.569Z,2.30
2019-01-30T13:14:30.003Z,2.20
2019-01-30T13:16:56.157Z,2.10
2019-01-30T13:19:22.306Z,2.10
2019-01-30T13:21:48.538Z,2.20
2019-01-30T13:24:14.678Z,2.20
2019-01-30T13:26:40.822Z,2.20
2019-01-30T13:29:06.979Z,2.20
2019-01-30T13:31:33.399Z,2.20
2019-01-30T13:33:59.546Z,2.30
2019-01-30T13:36:25.692Z,2.30
2019-01-30T13:38:52.848Z,2.30
2019-01-30T13:41:19.015Z,2.20
2019-01-30T13:43:45.183Z,2.20
2019-01-30T13:46:11.348Z,2.20
2019-01-30T13:48:37.531Z,2.20
2019-01-30T13:51:03.667Z,2.20
2019-01-30T13:53:29.850Z,2.10
2019-01-30T13:55:56.101Z,2.10
2019-01-30T13:58:22.329Z,2.10
2019-01-30T14:00:48.464Z,2.00
2019-01-30T14:03:14.793Z,2.00
2019-01-30T14:05:41.010Z,2.00
2019-01-30T14:08:07.162Z,2.00
2019-01-30T14:10:33.318Z,2.00
2019-01-30T14:12:59.519Z,2.00
2019-01-30T14:15:28.047Z,2.00
2019-01-30T14:17:54.239Z,1.90
2019-01-30T14:20:20.411Z,1.90
2019-01-30T14:22:46.611Z,1.90
2019-01-30T14:25:13.539Z,1.90
2019-01-30T14:27:39.725Z,1.90
2019-01-30T14:30:09.679Z,1.80
2019-01-30T14:32:35.827Z,1.80
2019-01-30T14:35:10.591Z,1.80
2019-01-30T14:37:30.779Z,1.70
2019-01-30T14:39:56.968Z,1.70
2019-01-30T14:42:23.234Z,1.70
2019-01-30T14:44:49.390Z,1.70
2019-01-30T14:47:15.636Z,1.70
2019-01-30T14:49:42.069Z,1.70
2019-01-30T14:52:08.309Z,1.60
2019-01-30T14:54:34.446Z,1.60
2019-01-30T14:57:00.660Z,1.70
2019-01-30T14:59:26.828Z,1.70
2019-01-30T15:01:54.294Z,1.70
2019-01-30T15:04:20.528Z,1.80
2019-01-30T15:06:46.658Z,1.70
2019-01-30T15:09:12.824Z,1.70
2019-01-30T15:11:39.351Z,1.70
2019-01-30T15:14:05.531Z,1.60
2019-01-30T15:16:31.748Z,1.70
2019-01-30T15:18:57.918Z,1.80
2019-01-30T15:21:24.332Z,1.80
2019-01-30T15:23:50.539Z,1.80
2019-01-30T15:26:16.690Z,1.80
2019-01-30T15:28:42.837Z,1.60
2019-01-30T15:31:09.245Z,1.60
2019-01-30T15:33:35.430Z,1.60
2019-01-30T15:36:01.603Z,1.50
2019-01-30T15:38:27.985Z,1.50
2019-01-30T15:40:54.155Z,1.50
2019-01-30T15:43:21.075Z,1.50
2019-01-30T15:45:47.227Z,1.50
2019-01-30T15:48:13.381Z,1.60
2019-01-30T15:50:40.651Z,1.60
2019-01-30T15:53:11.942Z,1.60
2019-01-30T15:55:38.103Z,1.60
2019-01-30T15:58:06.846Z,1.50
2019-01-30T16:00:41.962Z,1.60
2019-01-30T16:03:08.098Z,1.50
2019-01-30T16:05:44.146Z,1.60
2019-01-30T16:08:02.365Z,1.60
2019-01-30T16:10:28.779Z,1.70
2019-01-30T16:12:54.930Z,1.70
2019-01-30T16:15:24.299Z,1.60
2019-01-30T16:17:50.464Z,1.70
2019-01-30T16:20:16.635Z,1.70
2019-01-30T16:22:42.796Z,1.70
2019-01-30T16:25:10.732Z,1.70
2019-01-30T16:27:37.164Z,1.70
2019-01-30T16:30:12.856Z,1.70
2019-01-30T16:32:40.047Z,1.70
2019-01-30T16:35:10.003Z,1.60
2019-01-30T16:37:36.160Z,1.70
2019-01-30T16:40:05.226Z,1.60
2019-01-30T16:42:31.379Z,1.60
2019-01-30T16:44:57.551Z,1.60
2019-01-30T16:47:23.980Z,1.60
2019-01-30T16:49:50.131Z,1.60
2019-01-30T16:52:16.275Z,1.60
2019-01-30T16:54:42.436Z,1.50
2019-01-30T16:57:08.616Z,1.50
2019-01-30T16:59:34.787Z,1.50
2019-01-30T17:02:00.922Z,1.50
2019-01-30T17:04:27.344Z,1.60
2019-01-30T17:06:53.766Z,1.60
2019-01-30T17:09:19.932Z,1.60
2019-01-30T17:11:46.333Z,1.50
2019-01-30T17:14:12.562Z,1.50
2019-01-30T17:16:38.707Z,1.50
2019-01-30T17:19:04.895Z,1.50
2019-01-30T17:21:31.275Z,1.50
2019-01-30T17:23:57.654Z,1.60
2019-01-30T17:26:23.835Z,1.60
2019-01-30T17:28:49.999Z,1.60
2019-01-30T17:31:16.160Z,1.60
2019-01-30T17:33:42.317Z,1.60
2019-01-30T17:36:18.127Z,1.60
2019-01-30T17:38:36.561Z,1.60
2019-01-30T17:41:03.029Z,1.60
2019-01-30T17:43:29.179Z,1.60
2019-01-30T17:45:55.343Z,1.60
2019-01-30T17:48:21.511Z,1.60
2019-01-30T17:50:47.668Z,1.60
2019-01-30T17:53:13.816Z,1.60
2019-01-30T17:55:39.983Z,1.60
2019-01-30T17:58:06.127Z,1.60
2019-01-30T18:00:37.290Z,1.60
2019-01-30T18:03:03.679Z,1.60
2019-01-30T18:05:29.847Z,1.60
2019-01-30T18:07:56.233Z,1.60
2019-01-30T18:10:22.611Z,1.60
2019-01-30T18:12:48.999Z,1.50
2019-01-30T18:15:15.172Z,1.60
2019-01-30T18:17:41.563Z,1.60
2019-01-30T18:20:18.744Z,1.60
2019-01-30T18:22:45.913Z,1.60
2019-01-30T18:25:14.195Z,1.60
2019-01-30T18:27:40.360Z,1.60
2019-01-30T18:30:09.815Z,1.60
2019-01-30T18:32:37.228Z,1.60
2019-01-30T18:35:04.542Z,1.70
2019-01-30T18:37:30.686Z,1.70
2019-01-30T18:39:56.848Z,1.70
2019-01-30T18:42:23.027Z,1.60
2019-01-30T18:44:49.194Z,1.70
2019-01-30T18:47:15.356Z,1.70
2019-01-30T18:49:42.079Z,1.70
2019-01-30T18:52:08.390Z,1.70
2019-01-30T18:54:34.571Z,1.80
2019-01-30T18:57:00.973Z,1.70
2019-01-30T18:59:27.123Z,1.70
2019-01-30T19:01:53.542Z,1.70
2019-01-30T19:04:19.695Z,1.70
2019-01-30T19:06:52.401Z,1.70
2019-01-30T19:09:14.022Z,1.70
2019-01-30T19:11:40.192Z,1.70
2019-01-30T19:14:06.372Z,1.70
2019-01-30T19:16:32.531Z,1.70
2019-01-30T19:18:58.723Z,1.70
2019-01-30T19:21:24.876Z,1.70
2019-01-30T19:23:51.029Z,1.70
2019-01-30T19:26:17.195Z,1.80
2019-01-30T19:28:43.350Z,1.80
2019-01-30T19:31:09.782Z,1.80
2019-01-30T19:33:35.987Z,1.70
2019-01-30T19:36:03.899Z,1.70
2019-01-30T19:38:30.060Z,1.70
2019-01-30T19:40:56.260Z,1.70
2019-01-30T19:43:22.531Z,1.70
2019-01-30T19:45:48.727Z,1.70
2019-01-30T19:48:14.891Z,1.70
2019-01-30T19:50:41.104Z,1.70
2019-01-30T19:53:07.257Z,1.70
2019-01-30T19:55:33.406Z,1.70
2019-01-30T19:57:59.576Z,1.70
2019-01-30T20:00:31.364Z,1.70
2019-01-30T20:02:58.617Z,1.70
2019-01-30T20:05:24.822Z,1.80
2019-01-30T20:07:50.977Z,1.70
2019-01-30T20:10:25.786Z,1.70
2019-01-30T20:12:51.950Z,1.70
2019-01-30T20:15:18.139Z,1.70
2019-01-30T20:17:44.323Z,1.70
2019-01-30T20:20:13.283Z,1.70
2019-01-30T20:22:39.440Z,1.70
2019-01-30T20:25:25.763Z,1.70
2019-01-30T20:27:52.049Z,1.70
2019-01-30T20:30:22.717Z,1.70
2019-01-30T20:32:48.888Z,1.70
2019-01-30T20:35:15.063Z,1.70
2019-01-30T20:37:41.622Z,1.70
2019-01-30T20:40:11.471Z,1.70
2019-01-30T20:42:37.660Z,1.80
2019-01-30T20:45:07.491Z,1.70
2019-01-30T20:47:33.663Z,1.80
2019-01-30T20:50:00.289Z,1.80
2019-01-30T20:52:27.670Z,1.70
2019-01-30T20:54:59.883Z,1.70
2019-01-30T20:57:22.207Z,1.70
2019-01-30T20:59:51.064Z,1.70
2019-01-30T21:02:17.319Z,1.70
2019-01-30T21:04:43.504Z,1.70
2019-01-30T21:07:09.655Z,1.70
2019-01-30T21:09:35.830Z,1.70
2019-01-30T21:12:01.989Z,1.70
2019-01-30T21:14:28.411Z,1.70
2019-01-30T21:16:54.776Z,1.70
2019-01-30T21:19:21.198Z,1.70
2019-01-30T21:21:47.543Z,1.70
2019-01-30T21:24:13.984Z,1.70
2019-01-30T21:26:40.415Z,1.70
2019-01-30T21:29:06.608Z,1.70
2019-01-30T21:31:32.817Z,1.80
2019-01-30T21:33:58.992Z,1.80
2019-01-30T21:36:25.167Z,1.80
2019-01-30T21:38:51.549Z,1.80
2019-01-30T21:41:17.694Z,1.80
2019-01-30T21:43:44.126Z,1.80
2019-01-30T21:46:10.262Z,1.80
2019-01-30T21:48:36.837Z,1.80
2019-01-30T21:51:03.252Z,1.80
2019-01-30T21:53:29.406Z,1.90
2019-01-30T21:55:55.595Z,1.90
2019-01-30T21:58:21.759Z,1.90
2019-01-30T22:00:47.927Z,1.90
2019-01-30T22:03:14.079Z,1.90
2019-01-30T22:05:40.240Z,1.90
2019-01-30T22:08:06.425Z,1.90
2019-01-30T22:10:32.603Z,1.90
2019-01-30T22:12:59.013Z,1.90
2019-01-30T22:15:25.287Z,1.90
2019-01-30T22:17:51.474Z,1.90
2019-01-30T22:20:22.419Z,1.90
2019-01-30T22:22:48.655Z,1.90
2019-01-30T22:25:20.210Z,1.90
2019-01-30T22:27:44.955Z,1.90
2019-01-30T22:30:20.388Z,1.90
2019-01-30T22:32:46.561Z,1.90
2019-01-30T22:35:12.725Z,1.90
2019-01-30T22:37:38.872Z,1.90
2019-01-30T22:40:12.665Z,1.80
2019-01-30T22:42:39.088Z,1.80
2019-01-30T22:45:08.058Z,1.90
2019-01-30T22:47:34.281Z,1.90
2019-01-30T22:50:00.450Z,1.80
2019-01-30T22:52:26.591Z,1.80
2019-01-30T22:54:52.755Z,1.80
2019-01-30T22:57:18.921Z,1.80
2019-01-30T22:59:45.074Z,1.70
2019-01-30T23:02:11.490Z,1.70
2019-01-30T23:04:45.446Z,1.70
2019-01-30T23:07:15.275Z,1.70
2019-01-30T23:09:56.810Z,1.60
2019-01-30T23:12:26.887Z,1.60
2019-01-30T23:14:59.511Z,1.50
2019-01-30T23:17:54.559Z,1.40
2019-01-30T23:20:22.681Z,1.40
2019-01-30T23:22:58.603Z,1.30
2019-01-30T23:25:28.548Z,1.30
2019-01-30T23:27:58.514Z,1.30
2019-01-30T23:30:43.559Z,1.20
2019-01-30T23:33:20.339Z,1.30
2019-01-30T23:36:02.177Z,1.20
2019-01-30T23:38:34.460Z,1.20
2019-01-30T23:41:09.523Z,1.20
2019-01-30T23:43:57.463Z,1.20
2019-01-30T23:46:30.338Z,1.10
2019-01-30T23:49:33.761Z,1.00
2019-01-30T23:52:06.538Z,1.00
2019-01-30T23:54:39.254Z,1.00
2019-01-30T23:57:17.862Z,1.00
2019-01-30T23:59:56.766Z,0.90
